sensor_id;sensor_type;location;lat;lon;timestamp;P1;durP1;ratioP1;P2;durP2;ratioP2
2313;SDS011;42279;51.388;7.000;2022-11-13T00:02:04;9.53;;;8.73;;
2313;SDS011;42279;51.388;7.000;2022-11-13T00:04:30;9.87;;;8.97;;
2313;SDS011;42279;51.388;7.000;2022-11-13T00:06:56;9.17;;;8.47;;
2313;SDS011;42279;51.388;7.000;2022-11-13T00:09:22;11.53;;;10.17;;
2313;SDS011;42279;51.388;7.000;2022-11-13T00:11:48;9.20;;;8.50;;
2313;SDS011;42279;51.388;7.000;2022-11-13T00:14:15;10.73;;;9.60;;
2313;SDS011;42279;51.388;7.000;2022-11-13T00:16:41;9.97;;;8.80;;
2313;SDS011;42279;51.388;7.000;2022-11-13T00:19:07;10.40;;;9.23;;
2313;SDS011;42279;51.388;7.000;2022-11-13T00:21:33;9.60;;;8.60;;
2313;SDS011;42279;51.388;7.000;2022-11-13T00:23:59;8.93;;;8.30;;
2313;SDS011;42279;51.388;7.000;2022-11-13T00:26:26;9.23;;;8.53;;
2313;SDS011;42279;51.388;7.000;2022-11-13T00:28:52;8.97;;;8.20;;
2313;SDS011;42279;51.388;7.000;2022-11-13T00:31:19;8.17;;;7.53;;
2313;SDS011;42279;51.388;7.000;2022-11-13T00:33:45;9.27;;;8.63;;
2313;SDS011;42279;51.388;7.000;2022-11-13T00:36:15;10.57;;;9.33;;
2313;SDS011;42279;51.388;7.000;2022-11-13T00:38:41;9.50;;;8.60;;
2313;SDS011;42279;51.388;7.000;2022-11-13T00:41:07;9.53;;;8.63;;
2313;SDS011;42279;51.388;7.000;2022-11-13T00:43:33;11.83;;;10.13;;
2313;SDS011;42279;51.388;7.000;2022-11-13T00:45:59;9.10;;;8.40;;
2313;SDS011;42279;51.388;7.000;2022-11-13T00:48:25;9.43;;;8.50;;
2313;SDS011;42279;51.388;7.000;2022-11-13T00:50:51;11.10;;;9.97;;
2313;SDS011;42279;51.388;7.000;2022-11-13T00:53:18;8.77;;;7.97;;
2313;SDS011;42279;51.388;7.000;2022-11-13T00:55:44;9.17;;;8.27;;
2313;SDS011;42279;51.388;7.000;2022-11-13T00:58:14;10.07;;;9.20;;
2313;SDS011;42279;51.388;7.000;2022-11-13T01:00:41;8.73;;;7.93;;
2313;SDS011;42279;51.388;7.000;2022-11-13T01:03:07;14.30;;;10.17;;
2313;SDS011;42279;51.388;7.000;2022-11-13T01:05:37;8.93;;;8.17;;
2313;SDS011;42279;51.388;7.000;2022-11-13T01:08:03;10.23;;;9.07;;
2313;SDS011;42279;51.388;7.000;2022-11-13T01:10:29;9.10;;;8.30;;
2313;SDS011;42279;51.388;7.000;2022-11-13T01:12:56;9.43;;;8.57;;
2313;SDS011;42279;51.388;7.000;2022-11-13T01:15:22;8.97;;;8.27;;
2313;SDS011;42279;51.388;7.000;2022-11-13T01:17:48;8.43;;;7.73;;
2313;SDS011;42279;51.388;7.000;2022-11-13T01:20:15;9.67;;;8.70;;
2313;SDS011;42279;51.388;7.000;2022-11-13T01:22:42;8.83;;;7.97;;
2313;SDS011;42279;51.388;7.000;2022-11-13T01:25:08;9.60;;;8.00;;
2313;SDS011;42279;51.388;7.000;2022-11-13T01:27:34;10.03;;;8.13;;
2313;SDS011;42279;51.388;7.000;2022-11-13T01:30:01;9.17;;;8.37;;
2313;SDS011;42279;51.388;7.000;2022-11-13T01:32:27;7.97;;;7.50;;
2313;SDS011;42279;51.388;7.000;2022-11-13T01:34:53;8.67;;;7.80;;
2313;SDS011;42279;51.388;7.000;2022-11-13T01:37:19;8.80;;;8.03;;
2313;SDS011;42279;51.388;7.000;2022-11-13T01:39:45;12.33;;;8.77;;
2313;SDS011;42279;51.388;7.000;2022-11-13T01:42:11;9.47;;;8.50;;
2313;SDS011;42279;51.388;7.000;2022-11-13T01:44:53;10.00;;;7.47;;
2313;SDS011;42279;51.388;7.000;2022-11-13T01:47:20;9.57;;;8.27;;
2313;SDS011;42279;51.388;7.000;2022-11-13T01:49:46;8.53;;;7.83;;
2313;SDS011;42279;51.388;7.000;2022-11-13T01:52:17;9.43;;;8.33;;
2313;SDS011;42279;51.388;7.000;2022-11-13T01:54:46;9.40;;;8.60;;
2313;SDS011;42279;51.388;7.000;2022-11-13T01:57:13;7.73;;;7.23;;
2313;SDS011;42279;51.388;7.000;2022-11-13T01:59:40;8.37;;;7.77;;
2313;SDS011;42279;51.388;7.000;2022-11-13T02:02:08;7.57;;;6.93;;
2313;SDS011;42279;51.388;7.000;2022-11-13T02:04:34;8.30;;;7.50;;
2313;SDS011;42279;51.388;7.000;2022-11-13T02:07:04;8.67;;;7.83;;
2313;SDS011;42279;51.388;7.000;2022-11-13T02:09:35;6.60;;;6.10;;
2313;SDS011;42279;51.388;7.000;2022-11-13T02:12:02;7.73;;;7.23;;
2313;SDS011;42279;51.388;7.000;2022-11-13T02:14:28;8.53;;;7.60;;
2313;SDS011;42279;51.388;7.000;2022-11-13T02:16:56;7.53;;;6.93;;
2313;SDS011;42279;51.388;7.000;2022-11-13T02:19:45;8.80;;;7.37;;
2313;SDS011;42279;51.388;7.000;2022-11-13T02:22:13;7.13;;;6.60;;
2313;SDS011;42279;51.388;7.000;2022-11-13T02:24:42;8.03;;;7.47;;
2313;SDS011;42279;51.388;7.000;2022-11-13T02:27:14;7.87;;;7.20;;
2313;SDS011;42279;51.388;7.000;2022-11-13T02:29:41;8.17;;;7.37;;
2313;SDS011;42279;51.388;7.000;2022-11-13T02:32:07;6.93;;;6.43;;
2313;SDS011;42279;51.388;7.000;2022-11-13T02:34:33;7.97;;;7.33;;
2313;SDS011;42279;51.388;7.000;2022-11-13T02:36:59;7.07;;;6.47;;
2313;SDS011;42279;51.388;7.000;2022-11-13T02:39:25;7.27;;;6.67;;
2313;SDS011;42279;51.388;7.000;2022-11-13T02:41:51;6.40;;;6.10;;
2313;SDS011;42279;51.388;7.000;2022-11-13T02:44:17;6.30;;;5.70;;
2313;SDS011;42279;51.388;7.000;2022-11-13T02:46:43;6.53;;;6.03;;
2313;SDS011;42279;51.388;7.000;2022-11-13T02:49:09;6.90;;;6.50;;
2313;SDS011;42279;51.388;7.000;2022-11-13T02:51:35;6.93;;;6.47;;
2313;SDS011;42279;51.388;7.000;2022-11-13T02:54:01;7.50;;;6.90;;
2313;SDS011;42279;51.388;7.000;2022-11-13T02:56:27;6.57;;;6.17;;
2313;SDS011;42279;51.388;7.000;2022-11-13T02:58:53;6.90;;;6.43;;
2313;SDS011;42279;51.388;7.000;2022-11-13T03:01:19;7.47;;;6.77;;
2313;SDS011;42279;51.388;7.000;2022-11-13T03:03:45;7.90;;;7.40;;
2313;SDS011;42279;51.388;7.000;2022-11-13T03:06:11;7.13;;;6.63;;
2313;SDS011;42279;51.388;7.000;2022-11-13T03:08:37;7.03;;;6.53;;
2313;SDS011;42279;51.388;7.000;2022-11-13T03:11:10;6.90;;;6.30;;
2313;SDS011;42279;51.388;7.000;2022-11-13T03:13:36;7.00;;;6.50;;
2313;SDS011;42279;51.388;7.000;2022-11-13T03:16:10;7.43;;;6.73;;
2313;SDS011;42279;51.388;7.000;2022-11-13T03:18:37;7.70;;;7.00;;
2313;SDS011;42279;51.388;7.000;2022-11-13T03:21:06;8.90;;;6.77;;
2313;SDS011;42279;51.388;7.000;2022-11-13T03:23:33;8.27;;;7.57;;
2313;SDS011;42279;51.388;7.000;2022-11-13T03:26:03;6.97;;;6.47;;
2313;SDS011;42279;51.388;7.000;2022-11-13T03:28:30;7.50;;;6.90;;
2313;SDS011;42279;51.388;7.000;2022-11-13T03:30:56;7.60;;;7.10;;
2313;SDS011;42279;51.388;7.000;2022-11-13T03:33:22;7.30;;;6.73;;
2313;SDS011;42279;51.388;7.000;2022-11-13T03:35:48;7.90;;;7.27;;
2313;SDS011;42279;51.388;7.000;2022-11-13T03:38:14;6.80;;;6.40;;
2313;SDS011;42279;51.388;7.000;2022-11-13T03:40:41;6.40;;;5.90;;
2313;SDS011;42279;51.388;7.000;2022-11-13T03:43:07;6.20;;;5.70;;
2313;SDS011;42279;51.388;7.000;2022-11-13T03:45:33;7.60;;;6.90;;
2313;SDS011;42279;51.388;7.000;2022-11-13T03:48:00;7.60;;;6.60;;
2313;SDS011;42279;51.388;7.000;2022-11-13T03:50:26;6.67;;;6.00;;
2313;SDS011;42279;51.388;7.000;2022-11-13T03:52:52;8.67;;;7.77;;
2313;SDS011;42279;51.388;7.000;2022-11-13T03:55:18;6.37;;;6.07;;
2313;SDS011;42279;51.388;7.000;2022-11-13T03:57:45;6.80;;;6.40;;
2313;SDS011;42279;51.388;7.000;2022-11-13T04:00:11;7.03;;;6.50;;
2313;SDS011;42279;51.388;7.000;2022-11-13T04:02:37;5.40;;;5.13;;
2313;SDS011;42279;51.388;7.000;2022-11-13T04:05:04;6.40;;;6.10;;
2313;SDS011;42279;51.388;7.000;2022-11-13T04:07:30;7.23;;;6.70;;
2313;SDS011;42279;51.388;7.000;2022-11-13T04:09:56;7.33;;;6.73;;
2313;SDS011;42279;51.388;7.000;2022-11-13T04:12:22;6.00;;;5.60;;
2313;SDS011;42279;51.388;7.000;2022-11-13T04:14:48;6.13;;;5.63;;
2313;SDS011;42279;51.388;7.000;2022-11-13T04:17:14;7.40;;;6.47;;
2313;SDS011;42279;51.388;7.000;2022-11-13T04:19:40;6.23;;;5.70;;
2313;SDS011;42279;51.388;7.000;2022-11-13T04:22:06;6.03;;;5.63;;
2313;SDS011;42279;51.388;7.000;2022-11-13T04:24:32;6.77;;;6.17;;
2313;SDS011;42279;51.388;7.000;2022-11-13T04:26:58;6.32;;;5.93;;
2313;SDS011;42279;51.388;7.000;2022-11-13T04:29:24;6.87;;;6.27;;
2313;SDS011;42279;51.388;7.000;2022-11-13T04:31:50;6.53;;;5.97;;
2313;SDS011;42279;51.388;7.000;2022-11-13T04:34:16;7.72;;;6.38;;
2313;SDS011;42279;51.388;7.000;2022-11-13T04:36:42;6.30;;;5.90;;
2313;SDS011;42279;51.388;7.000;2022-11-13T04:39:08;6.93;;;6.50;;
2313;SDS011;42279;51.388;7.000;2022-11-13T04:41:34;7.60;;;7.10;;
2313;SDS011;42279;51.388;7.000;2022-11-13T04:44:19;5.23;;;4.90;;
2313;SDS011;42279;51.388;7.000;2022-11-13T04:46:45;5.80;;;5.40;;
2313;SDS011;42279;51.388;7.000;2022-11-13T04:49:11;5.57;;;5.27;;
2313;SDS011;42279;51.388;7.000;2022-11-13T04:51:37;5.53;;;5.27;;
2313;SDS011;42279;51.388;7.000;2022-11-13T04:54:03;5.00;;;4.60;;
2313;SDS011;42279;51.388;7.000;2022-11-13T04:56:29;5.13;;;4.83;;
2313;SDS011;42279;51.388;7.000;2022-11-13T04:58:55;4.77;;;4.50;;
2313;SDS011;42279;51.388;7.000;2022-11-13T05:01:21;6.67;;;5.03;;
2313;SDS011;42279;51.388;7.000;2022-11-13T05:03:47;5.33;;;5.03;;
2313;SDS011;42279;51.388;7.000;2022-11-13T05:06:13;4.73;;;4.53;;
2313;SDS011;42279;51.388;7.000;2022-11-13T05:08:39;5.20;;;4.97;;
2313;SDS011;42279;51.388;7.000;2022-11-13T05:11:05;4.73;;;4.33;;
2313;SDS011;42279;51.388;7.000;2022-11-13T05:13:32;5.88;;;5.15;;
2313;SDS011;42279;51.388;7.000;2022-11-13T05:16:05;5.32;;;4.93;;
2313;SDS011;42279;51.388;7.000;2022-11-13T05:18:32;7.85;;;5.03;;
2313;SDS011;42279;51.388;7.000;2022-11-13T05:20:58;4.40;;;4.20;;
2313;SDS011;42279;51.388;7.000;2022-11-13T05:23:24;5.85;;;5.40;;
2313;SDS011;42279;51.388;7.000;2022-11-13T05:25:50;5.90;;;5.40;;
2313;SDS011;42279;51.388;7.000;2022-11-13T05:28:16;5.20;;;4.80;;
2313;SDS011;42279;51.388;7.000;2022-11-13T05:30:42;8.52;;;5.05;;
2313;SDS011;42279;51.388;7.000;2022-11-13T05:33:08;5.72;;;5.18;;
2313;SDS011;42279;51.388;7.000;2022-11-13T05:35:35;3.77;;;3.57;;
2313;SDS011;42279;51.388;7.000;2022-11-13T05:38:01;4.88;;;4.53;;
2313;SDS011;42279;51.388;7.000;2022-11-13T05:40:28;4.20;;;4.00;;
2313;SDS011;42279;51.388;7.000;2022-11-13T05:42:54;4.35;;;4.05;;
2313;SDS011;42279;51.388;7.000;2022-11-13T05:45:24;4.53;;;4.22;;
2313;SDS011;42279;51.388;7.000;2022-11-13T05:47:50;4.40;;;4.20;;
2313;SDS011;42279;51.388;7.000;2022-11-13T05:50:16;4.53;;;4.23;;
2313;SDS011;42279;51.388;7.000;2022-11-13T05:52:45;4.85;;;4.65;;
2313;SDS011;42279;51.388;7.000;2022-11-13T05:55:15;4.22;;;4.03;;
2313;SDS011;42279;51.388;7.000;2022-11-13T05:57:41;4.13;;;3.92;;
2313;SDS011;42279;51.388;7.000;2022-11-13T06:00:07;4.50;;;4.40;;
2313;SDS011;42279;51.388;7.000;2022-11-13T06:02:33;3.87;;;3.67;;
2313;SDS011;42279;51.388;7.000;2022-11-13T06:04:59;4.17;;;3.97;;
2313;SDS011;42279;51.388;7.000;2022-11-13T06:07:25;3.73;;;3.63;;
2313;SDS011;42279;51.388;7.000;2022-11-13T06:09:51;4.43;;;4.23;;
2313;SDS011;42279;51.388;7.000;2022-11-13T06:12:17;3.90;;;3.80;;
2313;SDS011;42279;51.388;7.000;2022-11-13T06:14:43;4.60;;;4.30;;
2313;SDS011;42279;51.388;7.000;2022-11-13T06:17:09;4.38;;;4.07;;
2313;SDS011;42279;51.388;7.000;2022-11-13T06:19:36;10.93;;;3.90;;
2313;SDS011;42279;51.388;7.000;2022-11-13T06:22:02;3.70;;;3.33;;
2313;SDS011;42279;51.388;7.000;2022-11-13T06:24:28;4.30;;;3.87;;
2313;SDS011;42279;51.388;7.000;2022-11-13T06:26:54;4.53;;;3.10;;
2313;SDS011;42279;51.388;7.000;2022-11-13T06:29:20;4.20;;;4.00;;
2313;SDS011;42279;51.388;7.000;2022-11-13T06:31:47;5.30;;;5.00;;
2313;SDS011;42279;51.388;7.000;2022-11-13T06:34:13;3.60;;;3.50;;
2313;SDS011;42279;51.388;7.000;2022-11-13T06:36:39;3.78;;;3.67;;
2313;SDS011;42279;51.388;7.000;2022-11-13T06:39:06;3.67;;;3.38;;
2313;SDS011;42279;51.388;7.000;2022-11-13T06:41:32;3.45;;;3.30;;
2313;SDS011;42279;51.388;7.000;2022-11-13T06:43:59;4.07;;;3.80;;
2313;SDS011;42279;51.388;7.000;2022-11-13T06:46:26;3.40;;;3.30;;
2313;SDS011;42279;51.388;7.000;2022-11-13T06:48:52;3.70;;;3.60;;
2313;SDS011;42279;51.388;7.000;2022-11-13T06:51:23;4.20;;;4.00;;
2313;SDS011;42279;51.388;7.000;2022-11-13T06:53:49;4.30;;;4.00;;
2313;SDS011;42279;51.388;7.000;2022-11-13T06:56:15;4.40;;;3.50;;
2313;SDS011;42279;51.388;7.000;2022-11-13T06:58:41;3.00;;;3.00;;
2313;SDS011;42279;51.388;7.000;2022-11-13T07:01:12;3.50;;;3.40;;
2313;SDS011;42279;51.388;7.000;2022-11-13T07:03:38;4.00;;;3.70;;
2313;SDS011;42279;51.388;7.000;2022-11-13T07:06:06;4.87;;;4.57;;
2313;SDS011;42279;51.388;7.000;2022-11-13T07:08:32;3.23;;;3.03;;
2313;SDS011;42279;51.388;7.000;2022-11-13T07:10:58;3.78;;;3.50;;
2313;SDS011;42279;51.388;7.000;2022-11-13T07:13:25;3.87;;;3.60;;
2313;SDS011;42279;51.388;7.000;2022-11-13T07:15:51;3.67;;;3.57;;
2313;SDS011;42279;51.388;7.000;2022-11-13T07:18:17;3.33;;;3.23;;
2313;SDS011;42279;51.388;7.000;2022-11-13T07:20:43;3.47;;;3.43;;
2313;SDS011;42279;51.388;7.000;2022-11-13T07:23:09;3.63;;;3.50;;
2313;SDS011;42279;51.388;7.000;2022-11-13T07:25:35;3.75;;;3.65;;
2313;SDS011;42279;51.388;7.000;2022-11-13T07:28:01;3.40;;;3.30;;
2313;SDS011;42279;51.388;7.000;2022-11-13T07:30:27;3.42;;;3.33;;
2313;SDS011;42279;51.388;7.000;2022-11-13T07:32:53;3.35;;;3.25;;
2313;SDS011;42279;51.388;7.000;2022-11-13T07:35:20;2.85;;;2.80;;
2313;SDS011;42279;51.388;7.000;2022-11-13T07:37:46;3.58;;;3.28;;
2313;SDS011;42279;51.388;7.000;2022-11-13T07:40:13;3.00;;;2.90;;
2313;SDS011;42279;51.388;7.000;2022-11-13T07:42:54;3.85;;;3.15;;
2313;SDS011;42279;51.388;7.000;2022-11-13T07:45:21;2.58;;;2.58;;
2313;SDS011;42279;51.388;7.000;2022-11-13T07:47:47;3.45;;;3.45;;
2313;SDS011;42279;51.388;7.000;2022-11-13T07:50:13;3.33;;;3.20;;
2313;SDS011;42279;51.388;7.000;2022-11-13T07:52:39;3.10;;;3.00;;
2313;SDS011;42279;51.388;7.000;2022-11-13T07:55:05;3.67;;;3.40;;
2313;SDS011;42279;51.388;7.000;2022-11-13T07:57:31;4.20;;;4.00;;
2313;SDS011;42279;51.388;7.000;2022-11-13T07:59:57;3.80;;;3.70;;
2313;SDS011;42279;51.388;7.000;2022-11-13T08:02:23;4.00;;;3.87;;
2313;SDS011;42279;51.388;7.000;2022-11-13T08:04:49;4.10;;;3.80;;
2313;SDS011;42279;51.388;7.000;2022-11-13T08:07:15;4.00;;;3.80;;
2313;SDS011;42279;51.388;7.000;2022-11-13T08:09:41;4.88;;;4.70;;
2313;SDS011;42279;51.388;7.000;2022-11-13T08:12:07;5.07;;;4.73;;
2313;SDS011;42279;51.388;7.000;2022-11-13T08:14:33;4.10;;;3.90;;
2313;SDS011;42279;51.388;7.000;2022-11-13T08:16:59;4.20;;;4.10;;
2313;SDS011;42279;51.388;7.000;2022-11-13T08:19:25;4.27;;;3.97;;
2313;SDS011;42279;51.388;7.000;2022-11-13T08:21:51;4.30;;;4.07;;
2313;SDS011;42279;51.388;7.000;2022-11-13T08:24:17;3.90;;;3.63;;
2313;SDS011;42279;51.388;7.000;2022-11-13T08:26:43;3.50;;;3.30;;
2313;SDS011;42279;51.388;7.000;2022-11-13T08:29:09;4.10;;;4.00;;
2313;SDS011;42279;51.388;7.000;2022-11-13T08:31:35;5.13;;;4.83;;
2313;SDS011;42279;51.388;7.000;2022-11-13T08:34:01;4.00;;;3.70;;
2313;SDS011;42279;51.388;7.000;2022-11-13T08:36:27;4.70;;;4.40;;
2313;SDS011;42279;51.388;7.000;2022-11-13T08:38:53;3.60;;;3.50;;
2313;SDS011;42279;51.388;7.000;2022-11-13T08:41:19;3.90;;;3.80;;
2313;SDS011;42279;51.388;7.000;2022-11-13T08:43:48;2.83;;;2.83;;
2313;SDS011;42279;51.388;7.000;2022-11-13T08:46:14;4.30;;;4.10;;
2313;SDS011;42279;51.388;7.000;2022-11-13T08:48:41;4.33;;;4.17;;
2313;SDS011;42279;51.388;7.000;2022-11-13T08:51:08;2.90;;;2.80;;
2313;SDS011;42279;51.388;7.000;2022-11-13T08:53:34;3.67;;;3.37;;
2313;SDS011;42279;51.388;7.000;2022-11-13T08:56:00;3.60;;;3.50;;
2313;SDS011;42279;51.388;7.000;2022-11-13T08:58:26;3.60;;;3.50;;
2313;SDS011;42279;51.388;7.000;2022-11-13T09:00:52;3.27;;;3.20;;
2313;SDS011;42279;51.388;7.000;2022-11-13T09:03:18;2.97;;;2.87;;
2313;SDS011;42279;51.388;7.000;2022-11-13T09:05:44;3.40;;;3.30;;
2313;SDS011;42279;51.388;7.000;2022-11-13T09:08:10;2.70;;;2.70;;
2313;SDS011;42279;51.388;7.000;2022-11-13T09:10:36;3.13;;;2.93;;
2313;SDS011;42279;51.388;7.000;2022-11-13T09:13:03;2.93;;;2.80;;
2313;SDS011;42279;51.388;7.000;2022-11-13T09:15:29;3.87;;;3.67;;
2313;SDS011;42279;51.388;7.000;2022-11-13T09:17:57;3.70;;;3.50;;
2313;SDS011;42279;51.388;7.000;2022-11-13T09:20:23;4.43;;;4.13;;
2313;SDS011;42279;51.388;7.000;2022-11-13T09:22:54;3.60;;;3.50;;
2313;SDS011;42279;51.388;7.000;2022-11-13T09:25:21;3.30;;;3.10;;
2313;SDS011;42279;51.388;7.000;2022-11-13T09:27:57;3.47;;;3.37;;
2313;SDS011;42279;51.388;7.000;2022-11-13T09:30:23;3.87;;;3.77;;
2313;SDS011;42279;51.388;7.000;2022-11-13T09:32:56;4.10;;;4.00;;
2313;SDS011;42279;51.388;7.000;2022-11-13T09:35:23;4.43;;;4.30;;
2313;SDS011;42279;51.388;7.000;2022-11-13T09:38:12;4.87;;;4.77;;
2313;SDS011;42279;51.388;7.000;2022-11-13T09:40:40;3.70;;;3.60;;
2313;SDS011;42279;51.388;7.000;2022-11-13T09:43:21;4.97;;;4.77;;
2313;SDS011;42279;51.388;7.000;2022-11-13T09:45:50;3.60;;;3.50;;
2313;SDS011;42279;51.388;7.000;2022-11-13T09:51:02;3.40;;;3.30;;
2313;SDS011;42279;51.388;7.000;2022-11-13T09:53:31;3.63;;;3.53;;
2313;SDS011;42279;51.388;7.000;2022-11-13T10:01:15;3.73;;;3.73;;
2313;SDS011;42279;51.388;7.000;2022-11-13T10:04:01;3.63;;;3.53;;
2313;SDS011;42279;51.388;7.000;2022-11-13T10:06:49;4.33;;;4.20;;
2313;SDS011;42279;51.388;7.000;2022-11-13T10:12:05;3.70;;;3.60;;
2313;SDS011;42279;51.388;7.000;2022-11-13T10:14:39;3.83;;;3.60;;
2313;SDS011;42279;51.388;7.000;2022-11-13T10:25:08;3.77;;;3.67;;
2313;SDS011;42279;51.388;7.000;2022-11-13T10:27:36;3.43;;;3.40;;
2313;SDS011;42279;51.388;7.000;2022-11-13T10:30:02;3.80;;;3.70;;
2313;SDS011;42279;51.388;7.000;2022-11-13T10:32:31;4.60;;;4.37;;
2313;SDS011;42279;51.388;7.000;2022-11-13T10:35:41;4.90;;;4.70;;
2313;SDS011;42279;51.388;7.000;2022-11-13T10:40:23;4.50;;;4.40;;
2313;SDS011;42279;51.388;7.000;2022-11-13T10:42:49;3.90;;;3.80;;
2313;SDS011;42279;51.388;7.000;2022-11-13T10:45:16;5.07;;;4.77;;
2313;SDS011;42279;51.388;7.000;2022-11-13T10:47:44;3.70;;;3.63;;
2313;SDS011;42279;51.388;7.000;2022-11-13T10:50:13;4.17;;;3.90;;
2313;SDS011;42279;51.388;7.000;2022-11-13T10:52:44;3.97;;;3.77;;
2313;SDS011;42279;51.388;7.000;2022-11-13T10:55:16;7.43;;;6.70;;
2313;SDS011;42279;51.388;7.000;2022-11-13T10:57:53;3.47;;;3.37;;
2313;SDS011;42279;51.388;7.000;2022-11-13T11:00:21;3.80;;;3.70;;
2313;SDS011;42279;51.388;7.000;2022-11-13T11:02:47;4.50;;;4.30;;
2313;SDS011;42279;51.388;7.000;2022-11-13T11:05:21;5.37;;;5.07;;
2313;SDS011;42279;51.388;7.000;2022-11-13T11:07:47;4.40;;;4.30;;
2313;SDS011;42279;51.388;7.000;2022-11-13T11:10:18;4.40;;;4.30;;
2313;SDS011;42279;51.388;7.000;2022-11-13T11:12:50;4.13;;;4.03;;
2313;SDS011;42279;51.388;7.000;2022-11-13T11:17:46;4.33;;;4.10;;
2313;SDS011;42279;51.388;7.000;2022-11-13T11:23:01;4.80;;;4.70;;
2313;SDS011;42279;51.388;7.000;2022-11-13T11:25:33;3.90;;;3.70;;
2313;SDS011;42279;51.388;7.000;2022-11-13T11:30:28;3.33;;;3.10;;
2313;SDS011;42279;51.388;7.000;2022-11-13T11:33:05;3.70;;;3.57;;
2313;SDS011;42279;51.388;7.000;2022-11-13T11:35:41;4.00;;;3.90;;
2313;SDS011;42279;51.388;7.000;2022-11-13T11:38:24;3.83;;;3.73;;
2313;SDS011;42279;51.388;7.000;2022-11-13T11:40:52;4.60;;;4.40;;
2313;SDS011;42279;51.388;7.000;2022-11-13T11:45:52;12.67;;;11.83;;
2313;SDS011;42279;51.388;7.000;2022-11-13T11:48:22;4.70;;;4.60;;
2313;SDS011;42279;51.388;7.000;2022-11-13T11:53:42;3.27;;;3.27;;
2313;SDS011;42279;51.388;7.000;2022-11-13T12:11:39;4.10;;;3.80;;
2313;SDS011;42279;51.388;7.000;2022-11-13T12:19:40;3.13;;;3.03;;
2313;SDS011;42279;51.388;7.000;2022-11-13T12:22:12;2.77;;;2.77;;
2313;SDS011;42279;51.388;7.000;2022-11-13T12:29:39;3.97;;;3.87;;
2313;SDS011;42279;51.388;7.000;2022-11-13T12:34:38;3.97;;;3.87;;
2313;SDS011;42279;51.388;7.000;2022-11-13T12:37:10;4.53;;;4.40;;
2313;SDS011;42279;51.388;7.000;2022-11-13T12:42:19;3.20;;;3.20;;
2313;SDS011;42279;51.388;7.000;2022-11-13T12:44:48;4.13;;;4.00;;
2313;SDS011;42279;51.388;7.000;2022-11-13T12:47:14;4.63;;;4.50;;
2313;SDS011;42279;51.388;7.000;2022-11-13T12:49:56;4.37;;;4.07;;
2313;SDS011;42279;51.388;7.000;2022-11-13T12:52:23;4.60;;;4.40;;
2313;SDS011;42279;51.388;7.000;2022-11-13T12:54:49;5.23;;;5.00;;
2313;SDS011;42279;51.388;7.000;2022-11-13T12:59:46;4.47;;;4.37;;
2313;SDS011;42279;51.388;7.000;2022-11-13T13:04:46;5.00;;;4.70;;
2313;SDS011;42279;51.388;7.000;2022-11-13T13:17:22;3.90;;;3.70;;
2313;SDS011;42279;51.388;7.000;2022-11-13T13:19:59;4.90;;;4.80;;
2313;SDS011;42279;51.388;7.000;2022-11-13T13:22:29;4.50;;;4.40;;
2313;SDS011;42279;51.388;7.000;2022-11-13T13:25:05;4.47;;;4.17;;
2313;SDS011;42279;51.388;7.000;2022-11-13T13:27:34;4.77;;;4.57;;
2313;SDS011;42279;51.388;7.000;2022-11-13T13:30:10;5.00;;;4.80;;
2313;SDS011;42279;51.388;7.000;2022-11-13T13:35:22;5.60;;;4.40;;
2313;SDS011;42279;51.388;7.000;2022-11-13T13:45:52;4.87;;;4.73;;
2313;SDS011;42279;51.388;7.000;2022-11-13T13:48:20;5.33;;;4.93;;
2313;SDS011;42279;51.388;7.000;2022-11-13T13:50:48;4.37;;;4.20;;
2313;SDS011;42279;51.388;7.000;2022-11-13T13:53:16;7.83;;;7.13;;
2313;SDS011;42279;51.388;7.000;2022-11-13T13:55:47;5.57;;;5.20;;
2313;SDS011;42279;51.388;7.000;2022-11-13T13:58:15;6.20;;;5.90;;
2313;SDS011;42279;51.388;7.000;2022-11-13T14:00:42;5.97;;;5.67;;
2313;SDS011;42279;51.388;7.000;2022-11-13T14:03:26;6.00;;;5.70;;
2313;SDS011;42279;51.388;7.000;2022-11-13T14:05:53;6.63;;;6.13;;
2313;SDS011;42279;51.388;7.000;2022-11-13T14:08:23;7.93;;;6.03;;
2313;SDS011;42279;51.388;7.000;2022-11-13T14:10:50;5.57;;;5.17;;
2313;SDS011;42279;51.388;7.000;2022-11-13T14:13:24;7.13;;;6.47;;
2313;SDS011;42279;51.388;7.000;2022-11-13T14:16:03;8.30;;;7.70;;
2313;SDS011;42279;51.388;7.000;2022-11-13T14:18:30;6.60;;;6.10;;
2313;SDS011;42279;51.388;7.000;2022-11-13T14:20:57;9.23;;;8.40;;
2313;SDS011;42279;51.388;7.000;2022-11-13T14:23:24;10.13;;;9.53;;
2313;SDS011;42279;51.388;7.000;2022-11-13T14:25:54;6.63;;;6.30;;
2313;SDS011;42279;51.388;7.000;2022-11-13T14:28:22;6.87;;;6.43;;
2313;SDS011;42279;51.388;7.000;2022-11-13T14:30:52;6.73;;;6.33;;
2313;SDS011;42279;51.388;7.000;2022-11-13T14:33:21;10.30;;;7.83;;
2313;SDS011;42279;51.388;7.000;2022-11-13T14:35:54;7.57;;;7.17;;
2313;SDS011;42279;51.388;7.000;2022-11-13T14:38:23;8.17;;;7.67;;
2313;SDS011;42279;51.388;7.000;2022-11-13T14:40:50;9.20;;;8.50;;
2313;SDS011;42279;51.388;7.000;2022-11-13T14:43:21;8.50;;;8.00;;
2313;SDS011;42279;51.388;7.000;2022-11-13T14:45:58;11.03;;;8.50;;
2313;SDS011;42279;51.388;7.000;2022-11-13T14:48:29;8.43;;;7.83;;
2313;SDS011;42279;51.388;7.000;2022-11-13T14:50:56;14.93;;;8.80;;
2313;SDS011;42279;51.388;7.000;2022-11-13T14:55:57;8.47;;;7.60;;
2313;SDS011;42279;51.388;7.000;2022-11-13T14:58:33;9.37;;;8.47;;
2313;SDS011;42279;51.388;7.000;2022-11-13T15:01:19;9.03;;;8.13;;
2313;SDS011;42279;51.388;7.000;2022-11-13T15:03:47;8.87;;;8.17;;
2313;SDS011;42279;51.388;7.000;2022-11-13T15:06:46;8.60;;;8.00;;
2313;SDS011;42279;51.388;7.000;2022-11-13T15:09:09;9.90;;;9.00;;
2313;SDS011;42279;51.388;7.000;2022-11-13T15:11:35;8.57;;;7.80;;
2313;SDS011;42279;51.388;7.000;2022-11-13T15:14:08;9.33;;;8.63;;
2313;SDS011;42279;51.388;7.000;2022-11-13T15:16:35;8.10;;;7.60;;
2313;SDS011;42279;51.388;7.000;2022-11-13T15:19:03;9.03;;;8.30;;
2313;SDS011;42279;51.388;7.000;2022-11-13T15:21:29;10.50;;;8.73;;
2313;SDS011;42279;51.388;7.000;2022-11-13T15:23:56;7.80;;;7.30;;
2313;SDS011;42279;51.388;7.000;2022-11-13T15:26:22;8.87;;;8.27;;
2313;SDS011;42279;51.388;7.000;2022-11-13T15:28:48;11.90;;;8.80;;
2313;SDS011;42279;51.388;7.000;2022-11-13T15:31:24;8.20;;;7.70;;
2313;SDS011;42279;51.388;7.000;2022-11-13T15:33:51;8.53;;;7.90;;
2313;SDS011;42279;51.388;7.000;2022-11-13T15:36:17;10.10;;;8.40;;
2313;SDS011;42279;51.388;7.000;2022-11-13T15:38:43;8.70;;;7.80;;
2313;SDS011;42279;51.388;7.000;2022-11-13T15:41:20;8.63;;;8.00;;
2313;SDS011;42279;51.388;7.000;2022-11-13T15:43:47;8.60;;;7.90;;
2313;SDS011;42279;51.388;7.000;2022-11-13T15:46:14;9.20;;;8.40;;
2313;SDS011;42279;51.388;7.000;2022-11-13T15:48:44;10.73;;;9.83;;
2313;SDS011;42279;51.388;7.000;2022-11-13T15:51:15;10.00;;;9.10;;
2313;SDS011;42279;51.388;7.000;2022-11-13T15:53:43;9.33;;;8.53;;
2313;SDS011;42279;51.388;7.000;2022-11-13T15:56:10;8.70;;;7.90;;
2313;SDS011;42279;51.388;7.000;2022-11-13T15:58:36;9.50;;;8.20;;
2313;SDS011;42279;51.388;7.000;2022-11-13T16:01:02;10.97;;;9.87;;
2313;SDS011;42279;51.388;7.000;2022-11-13T16:03:27;9.60;;;8.67;;
2313;SDS011;42279;51.388;7.000;2022-11-13T16:05:57;9.27;;;8.50;;
2313;SDS011;42279;51.388;7.000;2022-11-13T16:08:23;9.17;;;8.40;;
2313;SDS011;42279;51.388;7.000;2022-11-13T16:10:49;8.20;;;7.40;;
2313;SDS011;42279;51.388;7.000;2022-11-13T16:13:15;10.20;;;8.53;;
2313;SDS011;42279;51.388;7.000;2022-11-13T16:15:41;11.50;;;7.00;;
2313;SDS011;42279;51.388;7.000;2022-11-13T16:18:09;12.30;;;8.90;;
2313;SDS011;42279;51.388;7.000;2022-11-13T16:20:39;8.07;;;7.27;;
2313;SDS011;42279;51.388;7.000;2022-11-13T16:23:07;8.37;;;7.50;;
2313;SDS011;42279;51.388;7.000;2022-11-13T16:25:33;8.90;;;7.80;;
2313;SDS011;42279;51.388;7.000;2022-11-13T16:27:59;8.87;;;7.33;;
2313;SDS011;42279;51.388;7.000;2022-11-13T16:30:25;7.60;;;7.00;;
2313;SDS011;42279;51.388;7.000;2022-11-13T16:32:52;7.47;;;6.80;;
2313;SDS011;42279;51.388;7.000;2022-11-13T16:37:54;7.60;;;6.73;;
2313;SDS011;42279;51.388;7.000;2022-11-13T16:40:22;8.93;;;8.20;;
2313;SDS011;42279;51.388;7.000;2022-11-13T16:42:48;9.90;;;8.17;;